Time;durP1;ratioP1;P1;durP2;ratioP2;P2;SDS_P1;SDS_P2;PMS_P1;PMS_P2;Temp;Humidity;BMP_temperature;BMP_pressure;BME280_temperature;BME280_humidity;BME280_pressure;Samples;Min_cycle;Max_cycle;Signal;HPM_P1;HPM_P2
2022/09/20 00:00:04;;;;;;;;;;;;;;;;;;1039632;28;20340;-78
2022/09/20 00:00:35;;;;;;;;;;;;;;;;;;1038363;28;20023;-78
2022/09/20 00:01:06;;;;;;;;;;;;;;;;;;1040837;28;20395;-78
2022/09/20 00:01:36;;;;;;;;;;;;;;;;;;1042262;28;19913;-78
2022/09/20 00:02:07;;;;;;;;;;;;;;;;;;1042058;28;19913;-78
2022/09/20 00:02:37;;;;;;;;;;;;;;;;;;1042502;28;19944;-78
2022/09/20 00:03:07;;;;;;;;;;;;;;;;;;1038923;28;19914;-78
2022/09/20 00:03:38;;;;;;;;;;;;;;;;;;1041047;28;19913;-78
2022/09/20 00:04:08;;;;;;;;;;;;;;;;;;1041563;28;19913;-78
2022/09/20 00:04:38;;;;;;;;;;;;;;;;;;1042252;28;19913;-78
2022/09/20 00:05:09;;;;;;;;;;;;;;;;;;1041711;28;20292;-78
2022/09/20 00:05:39;;;;;;;;;;;;;;;;;;1038290;28;20389;-78
2022/09/20 00:06:09;;;;;;;;;;;;;;;;;;1038343;28;19917;-78
2022/09/20 00:06:40;;;;;;;;;;;;;;;;;;1042190;28;20368;-78
2022/09/20 00:07:10;;;;;;;;;;;;;;;;;;1042580;28;19924;-78
2022/09/20 00:07:40;;;;;;;;;;;;;;;;;;1042978;28;20022;-78
2022/09/20 00:08:10;;;;;;;;;;;;;;;;;;1042784;28;20372;-78
2022/09/20 00:08:41;;;;;;;;;;;;;;;;;;1037838;28;20256;-78
2022/09/20 00:09:12;;;;;;;;;;;;;;;;;;1039428;28;20436;-77
2022/09/20 00:09:42;;;;;;;;;;;;;;;;;;1040486;28;19983;-78
2022/09/20 00:10:12;;;;;;;;;;;;;;;;;;1041110;28;20007;-78
2022/09/20 00:10:43;;;;;;;;;;;;;;;;;;1042143;28;19936;-78
2022/09/20 00:11:14;;;;;;;;;;;;;;;;;;1041870;28;20457;-78
2022/09/20 00:11:44;;;;;;;;;;;;;;;;;;1037886;28;19921;-78
2022/09/20 00:12:15;;;;;;;;;;;;;;;;;;1038985;28;19917;-78
2022/09/20 00:12:45;;;;;;;;;;;;;;;;;;1038415;28;20022;-77
2022/09/20 00:13:15;;;;;;;;;;;;;;;;;;1038132;28;19913;-77
2022/09/20 00:13:45;;;;;;;;;;;;;;;;;;1038893;28;20335;-78
2022/09/20 00:14:16;;;;;;;;;;;;;;;;;;1041482;28;19916;-78
2022/09/20 00:14:46;;;;;;;;;;;;;;;;;;1042063;28;19917;-78
2022/09/20 00:15:16;;;;;;;;;;;;;;;;;;1042080;28;19917;-77
2022/09/20 00:15:47;;;;;;;;;;;;;;;;;;1039607;28;19919;-78
2022/09/20 00:16:17;;;;;;;;;;;;;;;;;;1037796;28;19917;-77
2022/09/20 00:16:47;;;;;;;;;;;;;;;;;;1042239;28;20324;-77
2022/09/20 00:17:18;;;;;;;;;;;;;;;;;;1042147;28;19920;-78
2022/09/20 00:17:48;;;;;;;;;;;;;;;;;;1042832;28;19979;-78
2022/09/20 00:18:18;;;;;;;;;;;;;;;;;;1038381;28;20334;-78
2022/09/20 00:18:48;;;;;;;;;;;;;;;;;;1039598;28;19914;-78
2022/09/20 00:19:19;;;;;;;;;;;;;;;;;;1045068;28;19920;-76
2022/09/20 00:19:49;;;;;;;;;;;;;;;;;;1045070;28;19943;-77
2022/09/20 00:20:19;;;;;;;;;;;;;;;;;;1044750;28;19921;-77
2022/09/20 00:20:50;;;;;;;;;;;;;;;;;;1041958;28;19924;-78
2022/09/20 00:21:20;;;;;;;;;;;;;;;;;;1039239;28;19913;-78
2022/09/20 00:21:50;;;;;;;;;;;;;;;;;;1038497;28;19913;-78
2022/09/20 00:22:20;;;;;;;;;;;;;;;;;;1036130;28;19914;-78
2022/09/20 00:22:51;;;;;;;;;;;;;;;;;;1037460;28;19913;-78
2022/09/20 00:23:21;;;;;;;;;;;;;;;;;;1043216;28;19917;-78
2022/09/20 00:23:51;;;;;;;;;;;;;;;;;;1038274;28;19917;-78
2022/09/20 00:24:22;;;;;;;;;;;;;;;;;;1037847;28;20004;-78
2022/09/20 00:24:52;;;;;;;;;;;;;;;;;;1041642;28;19913;-77
2022/09/20 00:25:22;;;;;;;;;;;;;;;;;;1041969;28;19946;-77
2022/09/20 00:25:52;;;;;;;;;;;;;;;;;;1042076;28;20396;-77
2022/09/20 00:26:23;;;;;;;;;;;;;;;;;;1041877;28;19963;-77
2022/09/20 00:26:54;;;;;;;;;;;;;;;;;;1037455;28;20288;-77
2022/09/20 00:27:24;;;;;;;;;;;;;;;;;;1036984;28;19921;-78
2022/09/20 00:27:54;;;;;;;;;;;;;;;;;;1035633;28;19917;-78
2022/09/20 00:28:24;;;;;;;;;;;;;;;;;;1035888;28;19917;-78
2022/09/20 00:28:55;;;;;;;;;;;;;;;;;;1039598;28;19917;-78
2022/09/20 00:29:25;;;;;;;;;;;;;;;;;;1035756;28;19920;-78
2022/09/20 00:29:57;;;;;;;;;;;;;;;;;;1037867;28;20411;-78
2022/09/20 00:30:28;;;;;;;;;;;;;;;;;;1037675;28;19920;-78
2022/09/20 00:30:59;;;;;;;;;;;;;;;;;;1037861;28;20620;-78
2022/09/20 00:31:29;;;;;;;;;;;;;;;;;;1037985;28;19917;-78
2022/09/20 00:31:59;;;;;;;;;;;;;;;;;;1039017;28;19945;-78
2022/09/20 00:32:29;;;;;;;;;;;;;;;;;;1037214;28;19924;-77
2022/09/20 00:33:00;;;;;;;;;;;;;;;;;;1038380;28;19917;-78
2022/09/20 00:35:08;;;;;;;;;;;;;;;;;;1040415;28;19962;-78
2022/09/20 00:35:38;;;;;;;;;;;;;;;;;;1042862;28;19956;-78
2022/09/20 00:36:09;;;;;;;;;;;;;;;;;;1041832;28;20068;-78
2022/09/20 00:36:39;;;;;;;;;;;;;;;;;;1042692;28;19924;-78
2022/09/20 00:37:09;;;;;;;;;;;;;;;;;;1041056;28;21220;-77
2022/09/20 00:37:40;;;;;;;;;;;;;;;;;;1036706;28;19964;-77
2022/09/20 00:38:12;;;;;;;;;;;;;;;;;;1041893;28;20460;-78
2022/09/20 00:38:42;;;;;;;;;;;;;;;;;;1042030;28;19999;-78
2022/09/20 00:39:12;;;;;;;;;;;;;;;;;;1042160;28;19913;-78
2022/09/20 00:39:43;;;;;;;;;;;;;;;;;;1041109;28;20419;-78
2022/09/20 00:40:13;;;;;;;;;;;;;;;;;;1037706;28;19963;-77
2022/09/20 00:40:43;;;;;;;;;;;;;;;;;;1041266;28;20288;-78
2022/09/20 00:41:14;;;;;;;;;;;;;;;;;;1040877;28;19917;-78
2022/09/20 00:41:44;;;;;;;;;;;;;;;;;;1042117;28;20004;-78
2022/09/20 00:42:14;;;;;;;;;;;;;;;;;;1042712;28;19921;-78
2022/09/20 00:42:44;;;;;;;;;;;;;;;;;;1038466;28;20004;-78
2022/09/20 00:43:15;;;;;;;;;;;;;;;;;;1038598;28;19913;-78
2022/09/20 00:43:45;;;;;;;;;;;;;;;;;;1037103;28;19967;-78
2022/09/20 00:44:15;;;;;;;;;;;;;;;;;;1037495;28;20432;-78
2022/09/20 00:44:46;;;;;;;;;;;;;;;;;;1038313;28;19918;-78
2022/09/20 00:45:16;;;;;;;;;;;;;;;;;;1037923;28;20402;-77
2022/09/20 00:45:47;;;;;;;;;;;;;;;;;;1037714;28;19913;-78
2022/09/20 00:46:17;;;;;;;;;;;;;;;;;;1040891;28;20357;-78
2022/09/20 00:46:47;;;;;;;;;;;;;;;;;;1041233;28;19920;-78
2022/09/20 00:47:17;;;;;;;;;;;;;;;;;;1041468;28;19917;-78
2022/09/20 00:47:48;;;;;;;;;;;;;;;;;;1041852;28;19956;-78
2022/09/20 00:48:18;;;;;;;;;;;;;;;;;;1037668;28;19913;-78
2022/09/20 00:48:48;;;;;;;;;;;;;;;;;;1038831;28;19917;-78
2022/09/20 00:49:18;;;;;;;;;;;;;;;;;;1037816;28;19921;-78
2022/09/20 00:49:49;;;;;;;;;;;;;;;;;;1041328;28;20327;-78
2022/09/20 00:50:19;;;;;;;;;;;;;;;;;;1041851;28;19913;-77
2022/09/20 00:50:49;;;;;;;;;;;;;;;;;;1041782;28;19917;-77
2022/09/20 00:51:20;;;;;;;;;;;;;;;;;;1042020;28;19920;-78
2022/09/20 00:51:50;;;;;;;;;;;;;;;;;;1038414;28;20321;-78
2022/09/20 00:52:20;;;;;;;;;;;;;;;;;;1041528;28;19948;-78
2022/09/20 00:52:50;;;;;;;;;;;;;;;;;;1042628;28;19913;-79
2022/09/20 00:53:21;;;;;;;;;;;;;;;;;;1042925;28;19917;-78
2022/09/20 00:53:51;;;;;;;;;;;;;;;;;;1041404;28;19917;-78
2022/09/20 00:54:21;;;;;;;;;;;;;;;;;;1037875;28;19918;-78
2022/09/20 00:54:52;;;;;;;;;;;;;;;;;;1042379;28;19913;-78
2022/09/20 00:55:22;;;;;;;;;;;;;;;;;;1033820;28;20048;-78
2022/09/20 00:55:52;;;;;;;;;;;;;;;;;;1038655;28;19913;-78
2022/09/20 00:56:22;;;;;;;;;;;;;;;;;;1036998;28;19953;-78
2022/09/20 00:56:53;;;;;;;;;;;;;;;;;;1038662;28;19920;-78
2022/09/20 00:57:23;;;;;;;;;;;;;;;;;;1039629;28;19979;-78
2022/09/20 00:57:53;;;;;;;;;;;;;;;;;;1040014;28;19948;-78
2022/09/20 00:58:24;;;;;;;;;;;;;;;;;;1039804;28;19913;-78
2022/09/20 00:58:54;;;;;;;;;;;;;;;;;;1039875;28;20016;-78
2022/09/20 00:59:24;;;;;;;;;;;;;;;;;;1042875;28;19917;-78
2022/09/20 00:59:54;;;;;;;;;;;;;;;;;;1041605;28;19917;-78
2022/09/20 01:00:25;;;;;;;;;;;;;;;;;;1041957;28;19961;-78
2022/09/20 01:00:55;;;;;;;;;;;;;;;;;;1041930;28;19920;-78
2022/09/20 01:01:25;;;;;;;;;;;;;;;;;;1038003;28;20372;-78
2022/09/20 01:01:55;;;;;;;;;;;;;;;;;;1038508;28;20399;-78
2022/09/20 01:02:26;;;;;;;;;;;;;;;;;;1041896;28;19913;-78
2022/09/20 01:02:56;;;;;;;;;;;;;;;;;;1042380;28;19913;-78
2022/09/20 01:03:26;;;;;;;;;;;;;;;;;;1041701;28;19934;-78
2022/09/20 01:03:57;;;;;;;;;;;;;;;;;;1042668;28;19913;-79
2022/09/20 01:04:27;;;;;;;;;;;;;;;;;;1037842;28;20292;-78
2022/09/20 01:04:57;;;;;;;;;;;;;;;;;;1037295;28;19919;-78
2022/09/20 01:05:27;;;;;;;;;;;;;;;;;;1038180;28;20258;-78
2022/09/20 01:05:58;;;;;;;;;;;;;;;;;;1041343;28;19980;-78
2022/09/20 01:06:28;;;;;;;;;;;;;;;;;;1042155;28;20426;-78
2022/09/20 01:06:58;;;;;;;;;;;;;;;;;;1042249;28;19946;-78
2022/09/20 01:07:29;;;;;;;;;;;;;;;;;;1041744;28;20352;-79
2022/09/20 01:07:59;;;;;;;;;;;;;;;;;;1038112;28;19917;-77
2022/09/20 01:08:29;;;;;;;;;;;;;;;;;;1037797;28;19924;-78
2022/09/20 01:09:01;;;;;;;;;;;;;;;;;;1042178;28;19913;-78
2022/09/20 01:09:31;;;;;;;;;;;;;;;;;;1041929;28;19916;-78
2022/09/20 01:10:01;;;;;;;;;;;;;;;;;;1042790;28;20331;-78
2022/09/20 01:10:32;;;;;;;;;;;;;;;;;;1040829;28;19913;-78
2022/09/20 01:11:02;;;;;;;;;;;;;;;;;;1040759;28;20410;-78
2022/09/20 01:11:32;;;;;;;;;;;;;;;;;;1040489;28;19913;-78
2022/09/20 01:12:03;;;;;;;;;;;;;;;;;;1041349;28;19919;-78
2022/09/20 01:12:34;;;;;;;;;;;;;;;;;;1041719;28;19916;-77
2022/09/20 01:13:04;;;;;;;;;;;;;;;;;;1037782;28;19922;-77
2022/09/20 01:13:34;;;;;;;;;;;;;;;;;;1039752;28;19913;-78
2022/09/20 01:14:05;;;;;;;;;;;;;;;;;;1041213;28;20446;-78
2022/09/20 01:14:35;;;;;;;;;;;;;;;;;;1039312;28;19936;-77
2022/09/20 01:15:05;;;;;;;;;;;;;;;;;;1038716;28;19913;-78
2022/09/20 01:15:36;;;;;;;;;;;;;;;;;;1035007;28;20026;-77
2022/09/20 01:16:06;;;;;;;;;;;;;;;;;;1035927;28;19913;-78
2022/09/20 01:16:36;;;;;;;;;;;;;;;;;;1038769;28;19918;-77
2022/09/20 01:17:06;;;;;;;;;;;;;;;;;;1037285;28;19917;-78
2022/09/20 01:17:37;;;;;;;;;;;;;;;;;;1038222;28;20398;-77
2022/09/20 01:18:07;;;;;;;;;;;;;;;;;;1037938;28;19913;-77
2022/09/20 01:18:37;;;;;;;;;;;;;;;;;;1038469;28;20430;-77
2022/09/20 01:19:07;;;;;;;;;;;;;;;;;;1037231;28;19949;-77
2022/09/20 01:19:38;;;;;;;;;;;;;;;;;;1040696;28;20458;-78
2022/09/20 01:20:11;;;;;;;;;;;;;;;;;;1040375;28;20573;-77
2022/09/20 01:20:42;;;;;;;;;;;;;;;;;;1040787;28;19960;-77
2022/09/20 01:21:12;;;;;;;;;;;;;;;;;;1030276;28;20387;-77
2022/09/20 01:21:44;;;;;;;;;;;;;;;;;;1037828;28;19920;-77
2022/09/20 01:22:14;;;;;;;;;;;;;;;;;;1039635;28;20007;-77
2022/09/20 01:22:45;;;;;;;;;;;;;;;;;;1043856;28;19912;-78
2022/09/20 01:23:15;;;;;;;;;;;;;;;;;;1041308;28;20368;-78
2022/09/20 01:23:46;;;;;;;;;;;;;;;;;;1041096;28;20019;-77
2022/09/20 01:24:17;;;;;;;;;;;;;;;;;;1040443;28;20023;-77
2022/09/20 01:24:47;;;;;;;;;;;;;;;;;;1036739;28;19925;-76
2022/09/20 01:25:17;;;;;;;;;;;;;;;;;;1038736;28;20324;-76
2022/09/20 01:25:48;;;;;;;;;;;;;;;;;;1038840;28;19913;-76
2022/09/20 01:26:18;;;;;;;;;;;;;;;;;;1041195;28;19948;-77
2022/09/20 01:26:48;;;;;;;;;;;;;;;;;;1034806;28;19918;-77
2022/09/20 01:27:19;;;;;;;;;;;;;;;;;;1031583;28;19922;-78
2022/09/20 01:27:49;;;;;;;;;;;;;;;;;;1034806;28;20352;-78
2022/09/20 01:28:20;;;;;;;;;;;;;;;;;;1034134;28;19928;-77
2022/09/20 01:28:50;;;;;;;;;;;;;;;;;;1035892;28;19917;-77
2022/09/20 01:29:23;;;;;;;;;;;;;;;;;;1036711;28;19917;-76
2022/09/20 01:29:57;;;;;;;;;;;;;;;;;;1039517;28;20355;-77
2022/09/20 01:30:27;;;;;;;;;;;;;;;;;;1037409;28;20431;-77
2022/09/20 01:30:58;;;;;;;;;;;;;;;;;;1038828;28;19917;-77
2022/09/20 01:31:28;;;;;;;;;;;;;;;;;;1039473;28;20015;-77
2022/09/20 01:31:59;;;;;;;;;;;;;;;;;;1041135;28;20044;-77
2022/09/20 01:32:29;;;;;;;;;;;;;;;;;;1040000;28;19916;-77
2022/09/20 01:33:00;;;;;;;;;;;;;;;;;;1041480;28;20122;-76
2022/09/20 01:33:31;;;;;;;;;;;;;;;;;;1036805;28;20332;-78
2022/09/20 01:34:02;;;;;;;;;;;;;;;;;;1036937;28;19995;-77
2022/09/20 01:34:33;;;;;;;;;;;;;;;;;;1034698;28;20383;-76
2022/09/20 01:35:03;;;;;;;;;;;;;;;;;;1032700;28;20019;-76
2022/09/20 01:35:34;;;;;;;;;;;;;;;;;;1038533;28;20502;-77
2022/09/20 01:36:04;;;;;;;;;;;;;;;;;;1036512;28;19964;-77
2022/09/20 01:36:35;;;;;;;;;;;;;;;;;;1037049;28;19917;-77
2022/09/20 01:37:06;;;;;;;;;;;;;;;;;;1037403;28;20295;-77
2022/09/20 01:37:37;;;;;;;;;;;;;;;;;;1037425;28;19921;-77
2022/09/20 01:38:07;;;;;;;;;;;;;;;;;;1037205;28;19924;-77
2022/09/20 01:38:37;;;;;;;;;;;;;;;;;;1037924;28;20022;-76
2022/09/20 01:39:08;;;;;;;;;;;;;;;;;;1037649;28;20388;-76
2022/09/20 01:39:38;;;;;;;;;;;;;;;;;;1039089;28;19970;-76
2022/09/20 01:40:09;;;;;;;;;;;;;;;;;;1038532;28;19913;-76
2022/09/20 01:40:39;;;;;;;;;;;;;;;;;;1039411;28;20695;-76
2022/09/20 01:41:12;;;;;;;;;;;;;;;;;;1038844;28;19913;-78
2022/09/20 01:41:42;;;;;;;;;;;;;;;;;;1040897;28;19939;-78
2022/09/20 01:42:13;;;;;;;;;;;;;;;;;;1041464;28;19933;-78
2022/09/20 01:42:44;;;;;;;;;;;;;;;;;;1041156;28;19923;-79
2022/09/20 01:43:15;;;;;;;;;;;;;;;;;;1040394;28;19916;-78
2022/09/20 01:43:45;;;;;;;;;;;;;;;;;;1037778;28;20015;-78
2022/09/20 01:44:16;;;;;;;;;;;;;;;;;;1037415;28;20005;-77
2022/09/20 01:44:47;;;;;;;;;;;;;;;;;;1038010;28;19924;-78
2022/09/20 01:45:17;;;;;;;;;;;;;;;;;;1033380;28;19917;-78
2022/09/20 01:45:48;;;;;;;;;;;;;;;;;;1039176;28;19941;-78
2022/09/20 01:46:18;;;;;;;;;;;;;;;;;;1037874;28;19913;-78
2022/09/20 01:46:48;;;;;;;;;;;;;;;;;;1038813;28;19966;-78
2022/09/20 01:47:19;;;;;;;;;;;;;;;;;;1036452;28;20414;-78
2022/09/20 01:47:49;;;;;;;;;;;;;;;;;;1034937;28;19917;-77
2022/09/20 01:48:19;;;;;;;;;;;;;;;;;;1034366;28;19914;-78
2022/09/20 01:48:50;;;;;;;;;;;;;;;;;;1034172;28;19918;-78
2022/09/20 01:49:20;;;;;;;;;;;;;;;;;;1033821;28;19936;-78
2022/09/20 01:49:50;;;;;;;;;;;;;;;;;;1036570;28;20259;-78
2022/09/20 01:50:21;;;;;;;;;;;;;;;;;;1033942;28;19969;-78
2022/09/20 01:50:52;;;;;;;;;;;;;;;;;;1034184;28;19921;-78
2022/09/20 01:51:22;;;;;;;;;;;;;;;;;;1033766;28;19914;-78
2022/09/20 01:51:52;;;;;;;;;;;;;;;;;;1034231;28;19921;-78
2022/09/20 01:52:23;;;;;;;;;;;;;;;;;;1033155;28;20300;-77
2022/09/20 01:52:53;;;;;;;;;;;;;;;;;;1035102;28;19924;-78
2022/09/20 01:53:23;;;;;;;;;;;;;;;;;;1038138;28;20042;-78
2022/09/20 01:53:54;;;;;;;;;;;;;;;;;;1043425;28;19944;-77
2022/09/20 01:54:24;;;;;;;;;;;;;;;;;;1044045;28;19921;-78
2022/09/20 01:54:56;;;;;;;;;;;;;;;;;;1043708;28;19916;-77
2022/09/20 01:55:27;;;;;;;;;;;;;;;;;;1039256;28;20008;-78
2022/09/20 01:55:57;;;;;;;;;;;;;;;;;;1040430;28;19921;-79
2022/09/20 01:56:28;;;;;;;;;;;;;;;;;;1038691;28;19909;-79
2022/09/20 01:56:58;;;;;;;;;;;;;;;;;;1037744;28;20327;-78
2022/09/20 01:57:32;;;;;;;;;;;;;;;;;;1038095;28;20470;-79
2022/09/20 01:58:02;;;;;;;;;;;;;;;;;;1039213;28;19913;-78
2022/09/20 01:58:33;;;;;;;;;;;;;;;;;;1040728;28;19944;-78
2022/09/20 01:59:03;;;;;;;;;;;;;;;;;;1041663;28;19913;-79
2022/09/20 01:59:34;;;;;;;;;;;;;;;;;;1042359;28;19948;-79
2022/09/20 02:00:04;;;;;;;;;;;;;;;;;;1041057;28;20081;-78
2022/09/20 02:00:35;;;;;;;;;;;;;;;;;;1040827;28;19913;-79
2022/09/20 02:01:06;;;;;;;;;;;;;;;;;;1036293;28;19913;-79
2022/09/20 02:01:36;;;;;;;;;;;;;;;;;;1036659;28;20315;-79
2022/09/20 02:02:07;;;;;;;;;;;;;;;;;;1033027;28;19956;-80
2022/09/20 02:02:37;;;;;;;;;;;;;;;;;;1032970;28;20248;-79
2022/09/20 02:03:08;;;;;;;;;;;;;;;;;;1033102;28;20297;-79
2022/09/20 02:03:38;;;;;;;;;;;;;;;;;;1036489;28;20008;-78
2022/09/20 02:04:08;;;;;;;;;;;;;;;;;;1041779;28;19913;-78
2022/09/20 02:04:39;;;;;;;;;;;;;;;;;;1040527;28;20923;-78
2022/09/20 02:05:09;;;;;;;;;;;;;;;;;;1039157;28;19912;-79
2022/09/20 02:05:40;;;;;;;;;;;;;;;;;;1040796;28;19919;-79
2022/09/20 02:06:13;;;;;;;;;;;;;;;;;;1041989;28;19919;-79
2022/09/20 02:06:44;;;;;;;;;;;;;;;;;;1040157;28;19975;-78
2022/09/20 02:07:14;;;;;;;;;;;;;;;;;;1040394;28;21200;-78
2022/09/20 02:07:45;;;;;;;;;;;;;;;;;;1037711;28;20036;-79
2022/09/20 02:08:15;;;;;;;;;;;;;;;;;;1038292;28;20297;-78
2022/09/20 02:08:46;;;;;;;;;;;;;;;;;;1035777;28;20360;-78
2022/09/20 02:09:16;;;;;;;;;;;;;;;;;;1040445;28;19917;-78
2022/09/20 02:09:47;;;;;;;;;;;;;;;;;;1041734;28;19917;-78
2022/09/20 02:10:17;;;;;;;;;;;;;;;;;;1039220;28;19913;-78
2022/09/20 02:10:48;;;;;;;;;;;;;;;;;;1039327;28;19913;-78
2022/09/20 02:11:18;;;;;;;;;;;;;;;;;;1038833;28;20004;-80
2022/09/20 02:11:48;;;;;;;;;;;;;;;;;;1038384;28;19998;-79
2022/09/20 02:12:19;;;;;;;;;;;;;;;;;;1039252;28;20360;-79
2022/09/20 02:12:49;;;;;;;;;;;;;;;;;;1038922;28;19917;-79
2022/09/20 02:13:20;;;;;;;;;;;;;;;;;;1034387;28;19914;-78
2022/09/20 02:13:50;;;;;;;;;;;;;;;;;;1038970;28;19917;-78
2022/09/20 02:14:20;;;;;;;;;;;;;;;;;;1039528;28;20004;-78
2022/09/20 02:14:51;;;;;;;;;;;;;;;;;;1034948;28;19968;-79
2022/09/20 02:15:22;;;;;;;;;;;;;;;;;;1037439;28;20020;-80
2022/09/20 02:15:52;;;;;;;;;;;;;;;;;;1034992;28;19913;-79
2022/09/20 02:16:23;;;;;;;;;;;;;;;;;;1036915;28;19971;-80
2022/09/20 02:16:53;;;;;;;;;;;;;;;;;;1040336;28;19942;-82
2022/09/20 02:17:24;;;;;;;;;;;;;;;;;;1040183;28;19914;-81
2022/09/20 02:17:54;;;;;;;;;;;;;;;;;;1042883;28;20430;-79
2022/09/20 02:18:29;;;;;;;;;;;;;;;;;;1038126;28;19971;-78
2022/09/20 02:18:59;;;;;;;;;;;;;;;;;;1039504;28;20068;-80
2022/09/20 02:19:30;;;;;;;;;;;;;;;;;;1036814;28;19921;-80
2022/09/20 02:20:01;;;;;;;;;;;;;;;;;;1033434;28;20418;-80
2022/09/20 02:20:32;;;;;;;;;;;;;;;;;;1035777;28;19971;-83
2022/09/20 02:21:02;;;;;;;;;;;;;;;;;;1038644;23;20382;-78
2022/09/20 02:21:34;;;;;;;;;;;;;;;;;;1044901;23;19917;-78
2022/09/20 02:22:05;;;;;;;;;;;;;;;;;;1042768;28;20531;-78
2022/09/20 02:22:35;;;;;;;;;;;;;;;;;;1046895;28;19916;-78
2022/09/20 02:23:05;;;;;;;;;;;;;;;;;;1045913;28;20260;-78
2022/09/20 02:23:36;;;;;;;;;;;;;;;;;;1047524;28;20474;-78
2022/09/20 02:24:06;;;;;;;;;;;;;;;;;;1047212;28;19958;-79
2022/09/20 02:24:36;;;;;;;;;;;;;;;;;;1047955;28;19970;-79
2022/09/20 02:25:07;;;;;;;;;;;;;;;;;;1047122;28;20430;-80
2022/09/20 02:25:37;;;;;;;;;;;;;;;;;;1048221;28;20067;-79
2022/09/20 02:26:07;;;;;;;;;;;;;;;;;;1048047;28;19913;-79
2022/09/20 02:26:38;;;;;;;;;;;;;;;;;;1047700;28;20359;-79
2022/09/20 02:27:08;;;;;;;;;;;;;;;;;;1091457;23;20241;-81
2022/09/20 02:27:38;;;;;;;;;;;;;;;;;;1058109;22;19944;-82
2022/09/20 02:28:52;;;;;;;;;;;;;;;;;;1071114;22;19978;-81
2022/09/20 02:29:22;;;;;;;;;;;;;;;;;;1041704;28;19987;-84
2022/09/20 02:29:53;;;;;;;;;;;;;;;;;;1048952;23;20026;-80
2022/09/20 02:30:24;;;;;;;;;;;;;;;;;;1075325;22;19918;-80
2022/09/20 02:30:54;;;;;;;;;;;;;;;;;;1034861;28;20381;-79
2022/09/20 02:31:25;;;;;;;;;;;;;;;;;;1141282;22;19916;-81
2022/09/20 02:33:08;;;;;;;;;;;;;;;;;;1059023;23;19975;-81
2022/09/20 02:33:38;;;;;;;;;;;;;;;;;;1052527;22;19935;-83
2022/09/20 02:34:09;;;;;;;;;;;;;;;;;;1045144;28;20371;-83
2022/09/20 02:34:39;;;;;;;;;;;;;;;;;;1045347;28;19916;-81
2022/09/20 02:35:10;;;;;;;;;;;;;;;;;;1044654;28;19913;-81
2022/09/20 02:35:41;;;;;;;;;;;;;;;;;;1043325;28;19919;-81
2022/09/20 02:36:11;;;;;;;;;;;;;;;;;;1039628;28;19917;-78
2022/09/20 02:36:42;;;;;;;;;;;;;;;;;;1039923;28;19917;-82
2022/09/20 02:37:12;;;;;;;;;;;;;;;;;;1042103;28;20434;-84
2022/09/20 02:38:15;;;;;;;;;;;;;;;;;;1054963;22;19933;-79
2022/09/20 02:38:46;;;;;;;;;;;;;;;;;;1046439;23;19940;-78
2022/09/20 02:39:18;;;;;;;;;;;;;;;;;;1041688;28;19921;-80
2022/09/20 02:40:23;;;;;;;;;;;;;;;;;;1033720;28;19929;-79
2022/09/20 02:40:53;;;;;;;;;;;;;;;;;;1040034;28;19913;-80
2022/09/20 02:41:23;;;;;;;;;;;;;;;;;;1040521;28;19920;-80
2022/09/20 02:41:54;;;;;;;;;;;;;;;;;;1039695;28;19944;-78
2022/09/20 02:42:24;;;;;;;;;;;;;;;;;;1039026;28;19917;-79
2022/09/20 02:42:55;;;;;;;;;;;;;;;;;;1039421;28;20467;-79
2022/09/20 02:43:25;;;;;;;;;;;;;;;;;;1034724;28;19922;-80
2022/09/20 02:43:55;;;;;;;;;;;;;;;;;;1034758;28;20263;-79
2022/09/20 02:44:26;;;;;;;;;;;;;;;;;;1034572;28;19917;-80
2022/09/20 02:44:57;;;;;;;;;;;;;;;;;;1036625;28;19920;-78
2022/09/20 02:45:28;;;;;;;;;;;;;;;;;;1036282;28;19917;-79
2022/09/20 02:45:58;;;;;;;;;;;;;;;;;;1037118;28;19918;-79
2022/09/20 02:46:29;;;;;;;;;;;;;;;;;;1033442;28;19953;-79
2022/09/20 02:46:59;;;;;;;;;;;;;;;;;;1040100;23;20048;-78
2022/09/20 02:47:29;;;;;;;;;;;;;;;;;;1022743;28;20439;-79
2022/09/20 02:47:59;;;;;;;;;;;;;;;;;;1019880;28;20412;-80
2022/09/20 02:48:30;;;;;;;;;;;;;;;;;;1054730;23;19996;-78
2022/09/20 02:49:01;;;;;;;;;;;;;;;;;;1026019;28;21015;-79
2022/09/20 02:49:34;;;;;;;;;;;;;;;;;;1023818;28;20565;-79
2022/09/20 02:50:05;;;;;;;;;;;;;;;;;;1028061;28;19913;-80
2022/09/20 02:50:37;;;;;;;;;;;;;;;;;;1027813;28;20222;-79
2022/09/20 02:51:07;;;;;;;;;;;;;;;;;;1022027;28;20291;-80
2022/09/20 02:51:38;;;;;;;;;;;;;;;;;;1019203;28;20284;-80
2022/09/20 02:52:08;;;;;;;;;;;;;;;;;;1022464;28;20508;-78
2022/09/20 02:52:45;;;;;;;;;;;;;;;;;;1027049;28;20018;-81
2022/09/20 02:53:42;;;;;;;;;;;;;;;;;;1021450;28;20350;-80
2022/09/20 02:54:18;;;;;;;;;;;;;;;;;;1095072;22;19918;-79
2022/09/20 02:55:15;;;;;;;;;;;;;;;;;;1052845;22;20047;-79
2022/09/20 02:55:45;;;;;;;;;;;;;;;;;;1029160;28;19913;-79
2022/09/20 02:56:17;;;;;;;;;;;;;;;;;;1029572;28;19924;-78
2022/09/20 02:56:47;;;;;;;;;;;;;;;;;;1029250;28;20225;-80
2022/09/20 02:57:17;;;;;;;;;;;;;;;;;;1030260;28;20206;-80
2022/09/20 02:57:48;;;;;;;;;;;;;;;;;;1027660;28;19913;-79
2022/09/20 02:58:19;;;;;;;;;;;;;;;;;;1030802;28;19917;-80
2022/09/20 02:58:49;;;;;;;;;;;;;;;;;;1031346;28;20309;-78
2022/09/20 02:59:24;;;;;;;;;;;;;;;;;;1029098;28;20019;-77
2022/09/20 02:59:55;;;;;;;;;;;;;;;;;;1030718;28;19928;-78
2022/09/20 03:00:25;;;;;;;;;;;;;;;;;;1027807;28;19912;-77
2022/09/20 03:00:56;;;;;;;;;;;;;;;;;;1028107;28;19921;-79
2022/09/20 03:01:26;;;;;;;;;;;;;;;;;;1028365;28;19913;-79
2022/09/20 03:01:57;;;;;;;;;;;;;;;;;;1030665;28;20665;-77
2022/09/20 03:02:30;;;;;;;;;;;;;;;;;;1033375;28;19996;-80
2022/09/20 03:03:01;;;;;;;;;;;;;;;;;;1030936;28;19923;-79
2022/09/20 03:03:32;;;;;;;;;;;;;;;;;;1026723;28;20391;-79
2022/09/20 03:04:04;;;;;;;;;;;;;;;;;;1024341;28;20575;-79
2022/09/20 03:04:35;;;;;;;;;;;;;;;;;;1016842;28;19918;-78
2022/09/20 03:05:05;;;;;;;;;;;;;;;;;;1023215;28;19924;-79
2022/09/20 03:05:36;;;;;;;;;;;;;;;;;;1023831;28;19928;-79
2022/09/20 03:06:08;;;;;;;;;;;;;;;;;;1032274;28;19919;-78
2022/09/20 03:06:38;;;;;;;;;;;;;;;;;;1034750;28;19921;-79
2022/09/20 03:07:09;;;;;;;;;;;;;;;;;;1033126;28;19956;-79
2022/09/20 03:07:40;;;;;;;;;;;;;;;;;;1030495;28;19963;-80
2022/09/20 03:08:10;;;;;;;;;;;;;;;;;;1028437;28;19917;-79
2022/09/20 03:08:41;;;;;;;;;;;;;;;;;;1024244;28;19922;-79
2022/09/20 03:09:11;;;;;;;;;;;;;;;;;;1027064;28;20031;-79
2022/09/20 03:09:42;;;;;;;;;;;;;;;;;;1026814;28;20834;-79
2022/09/20 03:10:12;;;;;;;;;;;;;;;;;;1026333;28;20086;-79
2022/09/20 03:10:42;;;;;;;;;;;;;;;;;;1028165;28;20363;-79
2022/09/20 03:11:13;;;;;;;;;;;;;;;;;;1030536;28;19917;-78
2022/09/20 03:11:43;;;;;;;;;;;;;;;;;;1028403;28;19917;-79
2022/09/20 03:12:15;;;;;;;;;;;;;;;;;;1031891;28;20350;-78
2022/09/20 03:12:45;;;;;;;;;;;;;;;;;;1035156;28;19960;-78
2022/09/20 03:13:16;;;;;;;;;;;;;;;;;;1034360;28;20249;-79
2022/09/20 03:13:47;;;;;;;;;;;;;;;;;;1034706;28;19928;-79
2022/09/20 03:14:21;;;;;;;;;;;;;;;;;;1032827;28;19976;-78
2022/09/20 03:14:52;;;;;;;;;;;;;;;;;;1028479;28;19921;-79
2022/09/20 03:15:23;;;;;;;;;;;;;;;;;;1022375;28;19913;-79
2022/09/20 03:15:54;;;;;;;;;;;;;;;;;;1022953;28;19928;-79
2022/09/20 03:16:25;;;;;;;;;;;;;;;;;;1024960;28;20331;-78
2022/09/20 03:16:56;;;;;;;;;;;;;;;;;;1026508;28;19921;-79
2022/09/20 03:17:27;;;;;;;;;;;;;;;;;;1034655;28;19913;-80
2022/09/20 03:18:02;;;;;;;;;;;;;;;;;;1028819;28;20035;-78
2022/09/20 03:18:34;;;;;;;;;;;;;;;;;;1027512;28;19922;-79
2022/09/20 03:19:05;;;;;;;;;;;;;;;;;;1024234;28;20410;-79
2022/09/20 03:19:42;;;;;;;;;;;;;;;;;;1026133;28;19922;-81
2022/09/20 03:20:13;;;;;;;;;;;;;;;;;;1025448;28;20746;-79
2022/09/20 03:20:46;;;;;;;;;;;;;;;;;;1028411;28;19984;-79
2022/09/20 03:21:21;;;;;;;;;;;;;;;;;;1028845;28;19920;-79
2022/09/20 03:21:51;;;;;;;;;;;;;;;;;;1030981;28;20753;-79
2022/09/20 03:22:22;;;;;;;;;;;;;;;;;;1033145;28;19917;-79
2022/09/20 03:22:52;;;;;;;;;;;;;;;;;;1032836;28;20287;-79
2022/09/20 03:23:23;;;;;;;;;;;;;;;;;;1034277;28;19913;-78
2022/09/20 03:23:54;;;;;;;;;;;;;;;;;;1029416;28;19913;-78
2022/09/20 03:24:29;;;;;;;;;;;;;;;;;;1029021;28;19956;-78
2022/09/20 03:25:00;;;;;;;;;;;;;;;;;;1029986;28;19917;-79
2022/09/20 03:25:33;;;;;;;;;;;;;;;;;;1019665;28;19975;-79
2022/09/20 03:26:03;;;;;;;;;;;;;;;;;;1027538;28;19928;-80
2022/09/20 03:26:34;;;;;;;;;;;;;;;;;;1028617;28;20513;-79
2022/09/20 03:27:04;;;;;;;;;;;;;;;;;;1029393;28;19913;-79
2022/09/20 03:27:35;;;;;;;;;;;;;;;;;;1022839;28;20780;-79
2022/09/20 03:28:05;;;;;;;;;;;;;;;;;;1026326;28;19960;-79
2022/09/20 03:28:35;;;;;;;;;;;;;;;;;;1026623;28;20296;-79
2022/09/20 03:29:10;;;;;;;;;;;;;;;;;;1026705;28;19979;-81
2022/09/20 03:29:41;;;;;;;;;;;;;;;;;;1024934;28;20024;-79
2022/09/20 03:30:14;;;;;;;;;;;;;;;;;;1024080;28;19914;-78
2022/09/20 03:30:48;;;;;;;;;;;;;;;;;;1020075;28;19933;-80
2022/09/20 03:31:20;;;;;;;;;;;;;;;;;;1020892;28;19922;-78
2022/09/20 03:31:51;;;;;;;;;;;;;;;;;;1025156;28;20443;-79
2022/09/20 03:32:21;;;;;;;;;;;;;;;;;;1025244;28;20251;-78
2022/09/20 03:32:54;;;;;;;;;;;;;;;;;;1026243;28;20043;-78
2022/09/20 03:33:25;;;;;;;;;;;;;;;;;;1028645;28;19924;-78
2022/09/20 03:33:56;;;;;;;;;;;;;;;;;;1024069;28;19917;-78
2022/09/20 03:34:27;;;;;;;;;;;;;;;;;;1023579;28;19933;-79
2022/09/20 03:34:58;;;;;;;;;;;;;;;;;;1026430;28;20257;-78